createdAt,value
2022-11-28T00:01:34.122Z,16.37
2022-11-28T00:04:01.260Z,17.93
2022-11-28T00:06:28.558Z,17.53
2022-11-28T00:08:57.599Z,19.20
2022-11-28T00:11:24.958Z,19.17
2022-11-28T00:13:52.108Z,18.77
2022-11-28T00:16:23.829Z,19.70
2022-11-28T00:18:52.239Z,18.57
2022-11-28T00:21:19.959Z,21.17
2022-11-28T00:23:48.217Z,16.27
2022-11-28T00:26:21.817Z,18.67
2022-11-28T00:28:49.039Z,18.80
2022-11-28T00:31:18.653Z,17.03
2022-11-28T00:33:46.434Z,17.73
2022-11-28T00:36:13.810Z,18.27
2022-11-28T00:38:41.379Z,17.70
2022-11-28T00:41:12.036Z,18.20
2022-11-28T00:43:39.861Z,17.33
2022-11-28T00:46:07.385Z,19.40
2022-11-28T00:48:35.386Z,18.47
2022-11-28T00:51:11.352Z,17.23
2022-11-28T00:53:40.510Z,18.10
2022-11-28T00:56:09.342Z,18.03
2022-11-28T00:58:36.845Z,19.67
2022-11-28T01:01:12.659Z,18.50
2022-11-28T01:03:40.358Z,19.37
2022-11-28T01:06:08.385Z,18.47
2022-11-28T01:08:35.645Z,19.97
2022-11-28T01:11:02.714Z,17.40
2022-11-28T01:13:29.976Z,21.57
2022-11-28T01:15:58.697Z,19.37
2022-11-28T01:18:25.595Z,19.77
2022-11-28T01:20:52.537Z,20.70
2022-11-28T01:23:19.387Z,20.90
2022-11-28T01:25:46.169Z,23.47
2022-11-28T01:28:12.970Z,20.50
2022-11-28T01:30:39.750Z,21.83
2022-11-28T01:33:06.613Z,20.87
2022-11-28T01:35:33.421Z,19.50
2022-11-28T01:38:00.239Z,21.90
2022-11-28T01:40:27.188Z,21.93
2022-11-28T01:42:54.055Z,20.80
2022-11-28T01:45:23.979Z,21.67
2022-11-28T01:47:53.620Z,21.27
2022-11-28T01:50:21.721Z,22.23
2022-11-28T01:52:52.610Z,21.27
2022-11-28T01:55:22.696Z,19.90
2022-11-28T01:57:49.881Z,22.70
2022-11-28T02:00:20.230Z,24.00
2022-11-28T02:02:54.540Z,23.07
2022-11-28T02:05:22.779Z,18.37
2022-11-28T02:07:51.399Z,20.97
2022-11-28T02:10:28.573Z,22.60
2022-11-28T02:13:20.078Z,21.57
2022-11-28T02:15:58.973Z,18.03
2022-11-28T02:19:16.516Z,21.97
2022-11-28T02:21:55.629Z,21.00
2022-11-28T02:24:43.923Z,18.97
2022-11-28T02:27:29.186Z,24.30
2022-11-28T02:30:29.608Z,21.20
2022-11-28T02:33:08.408Z,19.93
2022-11-28T02:36:12.661Z,21.97
2022-11-28T02:38:50.411Z,18.77
2022-11-28T02:41:33.422Z,18.97
2022-11-28T02:44:14.805Z,18.37
2022-11-28T02:46:56.307Z,18.80
2022-11-28T02:49:29.454Z,21.17
2022-11-28T02:52:02.098Z,18.63
2022-11-28T02:54:31.624Z,18.27
2022-11-28T02:56:58.492Z,19.03
2022-11-28T02:59:37.451Z,17.17
2022-11-28T03:02:10.989Z,18.13
2022-11-28T03:04:56.678Z,17.97
2022-11-28T03:07:43.192Z,18.63
2022-11-28T03:10:37.608Z,19.20
2022-11-28T03:13:26.636Z,20.30
2022-11-28T03:16:15.246Z,18.20
2022-11-28T03:18:53.417Z,18.20
2022-11-28T03:21:38.514Z,21.33
2022-11-28T03:24:15.021Z,18.53
2022-11-28T03:27:08.879Z,18.63
2022-11-28T03:29:45.678Z,18.70
2022-11-28T03:32:19.540Z,22.70
2022-11-28T03:34:48.861Z,19.60
2022-11-28T03:37:20.880Z,20.33
2022-11-28T03:39:53.751Z,19.50
2022-11-28T03:42:24.453Z,18.53
2022-11-28T03:45:07.205Z,18.77
2022-11-28T03:47:40.537Z,20.20
2022-11-28T03:50:15.552Z,18.70
2022-11-28T03:52:50.369Z,19.60
2022-11-28T03:55:34.756Z,18.50
2022-11-28T03:58:36.059Z,17.20
2022-11-28T04:01:28.919Z,20.07
2022-11-28T04:04:18.733Z,20.53
2022-11-28T04:06:56.114Z,19.50
2022-11-28T04:09:51.137Z,17.70
2022-11-28T04:12:28.874Z,18.67
2022-11-28T04:15:09.849Z,18.63
2022-11-28T04:18:02.071Z,20.23
2022-11-28T04:20:46.715Z,20.70
2022-11-28T04:23:17.423Z,19.63
2022-11-28T04:25:53.352Z,19.33
2022-11-28T04:28:24.844Z,20.90
2022-11-28T04:30:54.972Z,18.97
2022-11-28T04:33:24.553Z,20.83
2022-11-28T04:35:54.957Z,19.87
2022-11-28T04:38:24.360Z,21.07
2022-11-28T04:41:09.988Z,24.13
2022-11-28T04:43:43.520Z,22.17
2022-11-28T04:46:16.101Z,20.93
2022-11-28T04:48:43.556Z,22.17
2022-11-28T04:51:20.346Z,20.93
2022-11-28T04:54:12.948Z,20.30
2022-11-28T04:56:55.917Z,21.83
2022-11-28T04:59:26.291Z,22.60
2022-11-28T05:01:55.804Z,21.93
2022-11-28T05:04:22.925Z,20.80
2022-11-28T05:06:50.088Z,26.67
2022-11-28T05:09:16.891Z,19.53
2022-11-28T05:11:43.682Z,21.07
2022-11-28T05:14:10.429Z,20.13
2022-11-28T05:16:37.266Z,21.17
2022-11-28T05:19:04.036Z,20.77
2022-11-28T05:21:30.832Z,22.30
2022-11-28T05:23:57.757Z,18.13
2022-11-28T05:26:26.013Z,20.83
2022-11-28T05:28:52.875Z,18.87
2022-11-28T05:31:21.622Z,21.97
2022-11-28T05:33:48.691Z,20.17
2022-11-28T05:36:16.459Z,20.73
2022-11-28T05:38:44.123Z,20.33
2022-11-28T05:41:19.746Z,20.30
2022-11-28T05:43:46.681Z,20.93
2022-11-28T05:46:13.643Z,18.37
2022-11-28T05:48:40.459Z,21.10
2022-11-28T05:51:07.891Z,21.03
2022-11-28T05:53:34.955Z,25.37
2022-11-28T05:56:11.392Z,20.17
2022-11-28T05:58:38.366Z,20.20
2022-11-28T06:01:20.391Z,20.50
2022-11-28T06:03:47.683Z,22.17
2022-11-28T06:06:20.731Z,20.57
2022-11-28T06:08:49.391Z,20.80
2022-11-28T06:11:17.413Z,21.23
2022-11-28T06:13:45.661Z,21.40
2022-11-28T06:16:15.764Z,17.30
2022-11-28T06:18:42.881Z,20.60
2022-11-28T06:21:11.511Z,20.80
2022-11-28T06:23:38.695Z,19.97
2022-11-28T06:26:10.849Z,23.70
2022-11-28T06:28:38.113Z,21.80
2022-11-28T06:31:09.249Z,21.40
2022-11-28T06:33:36.084Z,20.90
2022-11-28T06:36:05.160Z,21.83
2022-11-28T06:38:32.752Z,25.60
2022-11-28T06:41:01.887Z,23.37
2022-11-28T06:43:29.798Z,24.57
2022-11-28T06:45:56.645Z,25.37
2022-11-28T06:48:24.053Z,26.83
2022-11-28T06:50:51.305Z,25.97
2022-11-28T06:53:19.047Z,29.13
2022-11-28T06:55:46.589Z,24.40
2022-11-28T06:58:13.575Z,23.60
2022-11-28T07:00:40.419Z,23.77
2022-11-28T07:03:07.145Z,28.00
2022-11-28T07:05:33.906Z,27.77
2022-11-28T07:08:00.787Z,23.50
2022-11-28T07:10:28.553Z,25.30
2022-11-28T07:13:04.936Z,25.93
2022-11-28T07:15:32.283Z,24.87
2022-11-28T07:17:59.170Z,24.73
2022-11-28T07:20:25.931Z,26.60
2022-11-28T07:22:52.713Z,24.80
2022-11-28T07:25:19.469Z,26.53
2022-11-28T07:27:46.240Z,23.97
2022-11-28T07:30:13.334Z,24.20
2022-11-28T07:32:41.093Z,24.70
2022-11-28T07:35:08.957Z,23.23
2022-11-28T07:37:36.249Z,25.67
2022-11-28T07:40:04.270Z,25.07
2022-11-28T07:42:31.044Z,26.50
2022-11-28T07:45:04.757Z,28.17
2022-11-28T07:47:31.680Z,25.67
2022-11-28T07:49:58.505Z,26.60
2022-11-28T07:52:25.299Z,24.73
2022-11-28T07:54:52.131Z,25.70
2022-11-28T07:57:18.872Z,25.77
2022-11-28T07:59:45.842Z,26.10
2022-11-28T08:02:13.221Z,25.97
2022-11-28T08:04:45.943Z,26.03
2022-11-28T08:07:15.480Z,28.97
2022-11-28T08:09:42.673Z,23.63
2022-11-28T08:12:09.714Z,25.03
2022-11-28T08:14:36.473Z,24.80
2022-11-28T08:17:03.343Z,26.20
2022-11-28T08:19:33.720Z,24.07
2022-11-28T08:22:02.098Z,27.43
2022-11-28T08:24:28.865Z,27.20
2022-11-28T08:26:55.626Z,27.20
2022-11-28T08:29:22.388Z,26.07
2022-11-28T08:31:49.465Z,26.80
2022-11-28T08:34:16.232Z,27.10
2022-11-28T08:36:43.503Z,27.77
2022-11-28T08:39:26.992Z,26.70
2022-11-28T08:41:57.310Z,28.00
2022-11-28T08:44:24.496Z,27.27
2022-11-28T08:46:51.357Z,24.23
2022-11-28T08:49:18.416Z,26.30
2022-11-28T08:51:45.302Z,27.03
2022-11-28T08:54:12.308Z,24.67
2022-11-28T08:56:39.092Z,26.77
2022-11-28T08:59:07.100Z,26.30
2022-11-28T09:01:34.366Z,23.97
2022-11-28T09:04:01.606Z,27.00
2022-11-28T09:06:28.725Z,23.93
2022-11-28T09:08:55.544Z,28.03
2022-11-28T09:11:23.302Z,26.70
2022-11-28T09:13:50.267Z,24.80
2022-11-28T09:16:17.595Z,26.87
2022-11-28T09:18:44.435Z,27.60
2022-11-28T09:21:13.903Z,28.17
2022-11-28T09:23:42.379Z,27.27
2022-11-28T09:26:14.857Z,27.23
2022-11-28T09:28:41.944Z,26.03
2022-11-28T09:31:09.321Z,24.63
2022-11-28T09:33:36.606Z,25.93
2022-11-28T09:36:11.639Z,26.23
2022-11-28T09:38:38.801Z,30.33
2022-11-28T09:41:29.702Z,26.80
2022-11-28T09:44:06.834Z,26.60
2022-11-28T09:46:36.593Z,24.83
2022-11-28T09:49:14.971Z,28.53
2022-11-28T09:52:10.708Z,28.83
2022-11-28T09:54:44.395Z,27.00
2022-11-28T09:57:18.093Z,29.60
2022-11-28T09:59:46.296Z,28.90
2022-11-28T10:02:13.083Z,26.93
2022-11-28T10:04:59.932Z,29.57
2022-11-28T10:07:36.407Z,28.83
2022-11-28T10:10:21.174Z,30.77
2022-11-28T10:13:03.755Z,29.77
2022-11-28T10:16:03.837Z,32.00
2022-11-28T10:18:52.172Z,28.57
2022-11-28T10:21:26.516Z,29.70
2022-11-28T10:23:59.804Z,28.30
2022-11-28T10:26:43.010Z,28.80
2022-11-28T10:29:26.344Z,27.00
2022-11-28T10:31:58.555Z,29.17
2022-11-28T10:34:41.222Z,27.23
2022-11-28T10:37:31.510Z,25.63
2022-11-28T10:40:24.940Z,29.57
2022-11-28T10:43:15.879Z,28.30
2022-11-28T10:45:53.842Z,32.03
2022-11-28T10:48:39.909Z,28.40
2022-11-28T10:51:13.114Z,26.10
2022-11-28T10:53:42.847Z,27.13
2022-11-28T10:56:39.407Z,28.03
2022-11-28T10:59:21.467Z,28.43
2022-11-28T11:01:50.615Z,24.03
2022-11-28T11:04:24.132Z,27.37
2022-11-28T11:07:29.365Z,25.17
2022-11-28T11:10:06.254Z,26.83
2022-11-28T11:12:34.729Z,29.87
2022-11-28T11:15:24.419Z,30.70
2022-11-28T11:17:52.021Z,27.50
2022-11-28T11:20:39.909Z,30.03
2022-11-28T11:23:21.668Z,25.57
2022-11-28T11:25:58.568Z,26.47
2022-11-28T11:28:47.574Z,25.57
2022-11-28T11:31:30.911Z,28.57
2022-11-28T11:34:17.448Z,25.27
2022-11-28T11:36:44.643Z,27.83
2022-11-28T11:39:11.408Z,24.97
2022-11-28T11:41:46.908Z,25.70
2022-11-28T11:44:22.151Z,24.17
2022-11-28T11:47:09.786Z,23.50
2022-11-28T11:49:41.709Z,25.70
2022-11-28T11:52:14.663Z,22.50
2022-11-28T11:54:53.389Z,24.13
2022-11-28T11:57:34.385Z,23.50
2022-11-28T12:00:15.748Z,23.07
2022-11-28T12:03:04.974Z,22.67
2022-11-28T12:06:12.607Z,22.30
2022-11-28T12:08:50.312Z,24.00
2022-11-28T12:11:32.001Z,24.57
2022-11-28T12:14:10.391Z,22.87
2022-11-28T12:17:14.326Z,20.13
2022-11-28T12:20:08.620Z,20.07
2022-11-28T12:23:17.181Z,21.27
2022-11-28T12:26:10.691Z,19.07
2022-11-28T12:29:02.298Z,20.63
2022-11-28T12:31:41.174Z,19.20
2022-11-28T12:34:44.555Z,18.17
2022-11-28T12:38:09.115Z,22.27
2022-11-28T12:40:54.648Z,21.57
2022-11-28T12:43:41.405Z,19.63
2022-11-28T12:46:27.088Z,18.73
2022-11-28T12:49:25.153Z,19.50
2022-11-28T12:52:07.844Z,22.73
2022-11-28T12:54:40.376Z,18.53
2022-11-28T12:57:26.451Z,18.73
2022-11-28T13:00:13.794Z,19.37
2022-11-28T13:02:59.227Z,17.90
2022-11-28T13:05:40.595Z,19.73
2022-11-28T13:08:32.256Z,16.73
2022-11-28T13:11:13.034Z,19.07
2022-11-28T13:13:52.655Z,20.13
2022-11-28T13:16:46.492Z,22.47
2022-11-28T13:19:33.443Z,23.57
2022-11-28T13:22:38.339Z,26.57
2022-11-28T13:25:28.785Z,26.60
2022-11-28T13:28:25.025Z,26.43
2022-11-28T13:31:04.731Z,23.00
2022-11-28T13:33:54.539Z,28.20
2022-11-28T13:39:58.492Z,29.57
2022-11-28T13:43:07.757Z,26.40
2022-11-28T13:45:39.480Z,24.93
2022-11-28T13:49:05.915Z,28.23
2022-11-28T13:51:33.338Z,29.10
2022-11-28T13:54:21.612Z,28.03
2022-11-28T13:57:23.926Z,27.57
2022-11-28T14:00:18.401Z,27.80
2022-11-28T14:02:50.021Z,28.57
2022-11-28T14:05:26.561Z,27.93
2022-11-28T14:07:56.068Z,28.57
2022-11-28T14:10:52.906Z,27.20
2022-11-28T14:13:36.942Z,27.20
2022-11-28T14:16:33.942Z,28.70
2022-11-28T14:19:22.740Z,29.77
2022-11-28T14:22:22.023Z,24.83
2022-11-28T14:25:03.047Z,25.63
2022-11-28T14:27:34.709Z,28.73
2022-11-28T14:30:02.186Z,24.80
2022-11-28T14:32:42.240Z,29.27
2022-11-28T14:35:41.741Z,26.87
2022-11-28T14:38:31.053Z,27.53
2022-11-28T14:40:59.539Z,28.70
2022-11-28T14:43:28.839Z,31.30
2022-11-28T14:46:20.760Z,26.97
2022-11-28T14:49:14.993Z,28.87
2022-11-28T14:51:48.045Z,26.63
2022-11-28T14:54:32.104Z,26.03
2022-11-28T14:57:00.138Z,30.10
2022-11-28T14:59:36.915Z,26.53
2022-11-28T15:02:13.105Z,29.23
2022-11-28T15:05:00.018Z,35.27
2022-11-28T15:07:54.755Z,31.70
2022-11-28T15:10:38.952Z,30.77
2022-11-28T15:13:18.271Z,29.50
2022-11-28T15:15:53.250Z,30.00
2022-11-28T15:18:22.503Z,29.20
2022-11-28T15:20:58.661Z,30.20
2022-11-28T15:23:41.061Z,31.80
2022-11-28T15:26:35.926Z,32.73
2022-11-28T15:29:10.299Z,30.57
2022-11-28T15:31:37.844Z,28.40
2022-11-28T15:34:09.701Z,32.07
2022-11-28T15:36:39.331Z,31.83
2022-11-28T15:39:35.043Z,31.97
2022-11-28T15:42:05.746Z,32.87
2022-11-28T15:44:32.898Z,29.83
2022-11-28T15:46:59.935Z,31.70
2022-11-28T15:49:33.134Z,31.13
2022-11-28T15:52:03.367Z,29.27
2022-11-28T15:54:33.405Z,29.83
2022-11-28T15:57:01.256Z,32.67
2022-11-28T15:59:28.714Z,33.33
2022-11-28T16:01:59.811Z,33.93
2022-11-28T16:04:29.698Z,30.10
2022-11-28T16:06:59.907Z,30.40
2022-11-28T16:09:31.085Z,32.57
2022-11-28T16:11:58.109Z,34.80
2022-11-28T16:14:35.910Z,35.30
2022-11-28T16:17:08.100Z,35.23
2022-11-28T16:19:38.339Z,33.80
2022-11-28T16:22:09.310Z,32.10
2022-11-28T16:24:56.022Z,35.87
2022-11-28T16:27:29.258Z,34.57
2022-11-28T16:29:56.594Z,34.53
2022-11-28T16:32:32.560Z,37.73
2022-11-28T16:35:02.484Z,34.70
2022-11-28T16:37:31.599Z,30.87
2022-11-28T16:40:13.380Z,33.47
2022-11-28T16:42:41.096Z,34.90
2022-11-28T16:45:22.045Z,34.47
2022-11-28T16:48:08.655Z,34.30
2022-11-28T16:50:36.309Z,34.30
2022-11-28T16:53:04.270Z,37.07
2022-11-28T16:55:31.778Z,36.07
2022-11-28T16:58:07.198Z,35.80
2022-11-28T17:00:35.223Z,38.23
2022-11-28T17:03:03.386Z,38.17
2022-11-28T17:05:30.632Z,36.33
2022-11-28T17:07:58.021Z,38.03
2022-11-28T17:10:27.916Z,36.30
2022-11-28T17:12:55.053Z,38.53
2022-11-28T17:15:23.551Z,36.00
2022-11-28T17:17:50.412Z,41.23
2022-11-28T17:20:17.886Z,37.30
2022-11-28T17:22:47.754Z,36.77
2022-11-28T17:25:20.244Z,38.97
2022-11-28T17:27:48.404Z,43.23
2022-11-28T17:30:19.605Z,37.13
2022-11-28T17:32:51.923Z,42.07
2022-11-28T17:35:23.214Z,44.97
2022-11-28T17:37:50.155Z,42.90
2022-11-28T17:40:36.698Z,38.40
2022-11-28T17:43:04.352Z,43.17
2022-11-28T17:45:34.572Z,38.57
2022-11-28T17:48:01.394Z,49.43
2022-11-28T17:50:28.599Z,43.67
2022-11-28T17:52:55.632Z,46.33
2022-11-28T17:55:22.553Z,45.50
2022-11-28T17:57:49.327Z,44.70
2022-11-28T18:00:16.910Z,48.37
2022-11-28T18:02:44.919Z,43.53
2022-11-28T18:05:12.094Z,48.83
2022-11-28T18:07:40.110Z,44.17
2022-11-28T18:10:11.146Z,48.40
2022-11-28T18:12:39.059Z,44.83
2022-11-28T18:15:07.684Z,45.40
2022-11-28T18:17:34.501Z,50.03
2022-11-28T18:20:02.290Z,49.50
2022-11-28T18:22:29.090Z,50.80
2022-11-28T18:24:55.938Z,51.90
2022-11-28T18:27:22.753Z,55.40
2022-11-28T18:29:49.602Z,50.20
2022-11-28T18:32:16.791Z,48.07
2022-11-28T18:34:43.618Z,61.43
2022-11-28T18:37:10.744Z,59.50
2022-11-28T18:39:37.788Z,59.13
2022-11-28T18:42:05.564Z,51.97
2022-11-28T18:44:32.672Z,51.97
2022-11-28T18:46:59.597Z,54.00
2022-11-28T18:49:27.160Z,69.90
2022-11-28T18:51:56.584Z,57.97
2022-11-28T18:54:23.722Z,70.43
2022-11-28T18:56:50.572Z,75.17
2022-11-28T18:59:17.800Z,56.37
2022-11-28T19:01:44.826Z,60.43
2022-11-28T19:04:12.604Z,52.17
2022-11-28T19:06:40.588Z,57.80
2022-11-28T19:09:11.138Z,49.87
2022-11-28T19:11:39.010Z,54.50
2022-11-28T19:14:07.968Z,49.53
2022-11-28T19:16:37.688Z,48.57
2022-11-28T19:19:06.165Z,52.63
2022-11-28T19:21:35.912Z,50.60
2022-11-28T19:24:03.781Z,57.97
2022-11-28T19:26:33.486Z,54.37
2022-11-28T19:29:01.648Z,51.57
2022-11-28T19:31:34.214Z,54.27
2022-11-28T19:34:03.669Z,50.13
2022-11-28T19:36:34.008Z,49.60
2022-11-28T19:39:01.462Z,51.40
2022-11-28T19:41:29.685Z,49.73
2022-11-28T19:43:57.364Z,50.83
2022-11-28T19:46:24.595Z,49.93
2022-11-28T19:48:51.965Z,49.43
2022-11-28T19:51:20.364Z,50.27
2022-11-28T19:53:47.898Z,49.53
2022-11-28T19:56:18.135Z,51.57
2022-11-28T19:58:45.500Z,53.03
2022-11-28T20:01:24.062Z,48.00
2022-11-28T20:03:53.489Z,43.80
2022-11-28T20:06:25.069Z,49.53
2022-11-28T20:08:54.112Z,54.03
2022-11-28T20:11:24.088Z,53.00
2022-11-28T20:13:59.226Z,52.27
2022-11-28T20:16:28.184Z,52.13
2022-11-28T20:18:57.318Z,50.57
2022-11-28T20:21:24.193Z,48.73
2022-11-28T20:23:54.857Z,50.60
2022-11-28T20:26:24.280Z,50.83
2022-11-28T20:28:56.009Z,50.53
2022-11-28T20:31:28.128Z,50.00
2022-11-28T20:33:55.181Z,48.50
2022-11-28T20:36:24.162Z,48.47
2022-11-28T20:38:52.234Z,52.40
2022-11-28T20:41:21.044Z,48.20
2022-11-28T20:43:48.120Z,51.43
2022-11-28T20:46:23.655Z,47.80
2022-11-28T20:48:50.680Z,50.10
2022-11-28T20:51:22.933Z,49.50
2022-11-28T20:53:50.086Z,51.47
2022-11-28T20:56:20.004Z,47.33
2022-11-28T20:58:47.300Z,50.03
2022-11-28T21:01:23.616Z,49.40
2022-11-28T21:03:51.502Z,47.63
2022-11-28T21:06:18.842Z,48.03
2022-11-28T21:08:46.025Z,45.73
2022-11-28T21:11:36.470Z,43.70
2022-11-28T21:14:03.952Z,48.97
2022-11-28T21:16:33.137Z,47.73
2022-11-28T21:19:04.703Z,47.80
2022-11-28T21:21:33.248Z,45.90
2022-11-28T21:24:10.346Z,51.47
2022-11-28T21:26:41.721Z,47.07
2022-11-28T21:29:12.562Z,43.83
2022-11-28T21:31:43.993Z,48.77
2022-11-28T21:34:15.559Z,48.77
2022-11-28T21:36:43.124Z,46.27
2022-11-28T21:39:13.981Z,45.77
2022-11-28T21:41:41.447Z,43.03
2022-11-28T21:44:08.706Z,47.93
2022-11-28T21:46:35.619Z,47.77
2022-11-28T21:49:02.692Z,45.03
2022-11-28T21:51:29.649Z,49.10
2022-11-28T21:53:59.988Z,44.93
2022-11-28T21:56:27.203Z,47.03
2022-11-28T21:58:54.509Z,44.60
2022-11-28T22:01:21.763Z,45.67
2022-11-28T22:03:49.151Z,44.33
2022-11-28T22:06:19.976Z,45.97
2022-11-28T22:08:51.489Z,45.27
2022-11-28T22:11:19.497Z,42.50
2022-11-28T22:13:47.274Z,43.30
2022-11-28T22:16:19.477Z,42.40
2022-11-28T22:18:47.465Z,44.63
2022-11-28T22:24:05.233Z,40.73
2022-11-28T22:26:32.630Z,42.83
2022-11-28T22:29:00.858Z,43.73
2022-11-28T22:31:27.848Z,45.93
2022-11-28T22:33:54.793Z,43.90
2022-11-28T22:36:22.486Z,47.03
2022-11-28T22:38:54.503Z,46.33
2022-11-28T22:41:28.476Z,46.93
2022-11-28T22:44:00.200Z,44.00
2022-11-28T22:46:27.956Z,43.27
2022-11-28T22:48:55.122Z,44.10
2022-11-28T22:51:24.980Z,48.60
2022-11-28T22:53:55.120Z,43.13
2022-11-28T22:56:24.416Z,44.40
2022-11-28T22:58:51.814Z,43.67
2022-11-28T23:01:24.242Z,41.77
2022-11-28T23:03:52.014Z,44.57
2022-11-28T23:06:31.112Z,37.77
2022-11-28T23:08:59.772Z,43.33
2022-11-28T23:11:31.092Z,40.27
2022-11-28T23:13:59.402Z,45.97
2022-11-28T23:16:30.348Z,42.43
2022-11-28T23:19:00.398Z,42.63
2022-11-28T23:21:30.464Z,43.40
2022-11-28T23:23:58.148Z,42.37
2022-11-28T23:26:28.176Z,40.30
2022-11-28T23:28:55.215Z,42.57
2022-11-28T23:31:25.744Z,43.70
2022-11-28T23:33:54.785Z,43.27
2022-11-28T23:36:42.074Z,39.07
2022-11-28T23:39:22.786Z,44.00
2022-11-28T23:41:50.032Z,40.13
2022-11-28T23:44:18.675Z,38.80
2022-11-28T23:46:46.254Z,42.03
2022-11-28T23:49:13.562Z,40.50
2022-11-28T23:51:41.199Z,40.80
2022-11-28T23:54:09.336Z,44.57
2022-11-28T23:56:37.536Z,42.03
2022-11-28T23:59:06.255Z,42.17
